createdAt,value
2023-05-23T00:01:24.916Z,17.92
2023-05-23T00:06:28.065Z,17.51
2023-05-23T00:11:31.117Z,17.82
2023-05-23T00:16:42.902Z,17.83
2023-05-23T00:21:49.540Z,17.77
2023-05-23T00:26:54.852Z,17.51
2023-05-23T00:31:59.031Z,17.62
2023-05-23T00:37:02.170Z,17.91
2023-05-23T00:42:06.408Z,17.75
2023-05-23T00:47:13.748Z,17.59
2023-05-23T00:52:16.817Z,17.63
2023-05-23T00:57:20.050Z,17.84
2023-05-23T01:02:25.002Z,17.74
2023-05-23T01:07:28.964Z,17.81
2023-05-23T01:12:41.536Z,17.72
2023-05-23T01:17:53.013Z,17.40
2023-05-23T01:23:15.496Z,17.84
2023-05-23T01:28:23.039Z,17.79
2023-05-23T01:33:26.737Z,17.70
2023-05-23T01:38:29.584Z,17.76
2023-05-23T01:43:34.150Z,17.77
2023-05-23T01:48:38.414Z,17.71
2023-05-23T01:53:41.717Z,17.44
2023-05-23T01:58:45.888Z,17.39
2023-05-23T02:03:48.587Z,17.75
2023-05-23T02:08:51.693Z,17.53
2023-05-23T02:13:55.711Z,17.74
2023-05-23T02:18:58.552Z,17.74
2023-05-23T02:24:01.397Z,17.71
2023-05-23T02:29:06.925Z,17.77
2023-05-23T02:34:09.663Z,16.68
2023-05-23T02:39:12.369Z,17.11
2023-05-23T02:44:19.508Z,17.07
2023-05-23T02:49:22.364Z,17.07
2023-05-23T02:54:26.954Z,15.72
2023-05-23T02:59:31.381Z,17.00
2023-05-23T03:04:34.498Z,16.79
2023-05-23T03:09:37.516Z,17.31
2023-05-23T03:14:41.829Z,17.27
2023-05-23T03:19:44.801Z,16.95
2023-05-23T03:24:50.155Z,16.97
2023-05-23T03:29:54.388Z,17.10
2023-05-23T03:34:57.710Z,16.85
2023-05-23T03:40:00.663Z,16.85
2023-05-23T03:45:06.775Z,17.23
2023-05-23T03:50:11.240Z,17.11
2023-05-23T03:55:15.027Z,16.88
2023-05-23T04:00:20.204Z,17.17
2023-05-23T04:05:25.839Z,16.92
2023-05-23T04:10:29.806Z,16.73
2023-05-23T04:15:35.533Z,16.55
2023-05-23T04:20:44.306Z,16.97
2023-05-23T04:25:48.357Z,17.02
2023-05-23T04:30:59.508Z,16.13
2023-05-23T04:36:05.590Z,16.54
2023-05-23T04:41:10.161Z,16.97
2023-05-23T04:46:36.517Z,16.98
2023-05-23T04:51:58.138Z,16.70
2023-05-23T04:57:06.597Z,16.68
2023-05-23T05:02:11.239Z,16.98
2023-05-23T05:07:16.518Z,16.91
2023-05-23T05:12:19.673Z,16.76
2023-05-23T05:17:24.893Z,16.92
2023-05-23T05:22:40.257Z,16.62
2023-05-23T05:27:47.499Z,16.91
2023-05-23T05:32:58.574Z,16.90
2023-05-23T05:38:04.918Z,16.37
2023-05-23T05:43:07.960Z,16.28
2023-05-23T05:48:12.773Z,16.71
2023-05-23T05:53:17.548Z,16.55
2023-05-23T05:58:20.833Z,16.74
2023-05-23T06:03:34.892Z,16.83
2023-05-23T06:08:37.821Z,16.72
2023-05-23T06:13:41.131Z,16.71
2023-05-23T06:18:45.661Z,16.72
2023-05-23T06:23:49.652Z,16.77
2023-05-23T06:28:52.506Z,16.74
2023-05-23T06:33:57.212Z,16.85
2023-05-23T06:38:59.871Z,16.85
2023-05-23T06:44:02.697Z,16.97
2023-05-23T06:49:14.910Z,16.67
2023-05-23T06:54:20.835Z,16.67
2023-05-23T06:59:23.708Z,16.67
2023-05-23T07:04:30.413Z,16.92
2023-05-23T07:09:41.417Z,16.33
2023-05-23T07:14:49.300Z,16.66
2023-05-23T07:19:59.223Z,16.63
2023-05-23T07:25:03.402Z,16.46
2023-05-23T07:30:12.843Z,16.37
2023-05-23T07:35:17.908Z,16.13
2023-05-23T07:40:23.168Z,15.83
2023-05-23T07:45:25.911Z,15.93
2023-05-23T07:50:32.181Z,15.84
2023-05-23T07:55:36.698Z,15.86
2023-05-23T08:00:41.658Z,15.75
2023-05-23T08:05:56.709Z,15.37
2023-05-23T08:10:59.570Z,15.93
2023-05-23T08:16:09.846Z,15.67
2023-05-23T08:21:16.995Z,15.81
2023-05-23T08:26:19.803Z,15.59
2023-05-23T08:31:23.893Z,15.63
2023-05-23T08:36:28.560Z,15.57
2023-05-23T08:41:35.016Z,15.74
2023-05-23T08:46:46.973Z,15.65
2023-05-23T08:52:03.685Z,15.33
2023-05-23T08:57:08.648Z,15.64
2023-05-23T09:02:18.157Z,15.46
2023-05-23T09:07:24.483Z,15.61
2023-05-23T09:12:29.481Z,15.66
2023-05-23T09:17:34.969Z,15.72
2023-05-23T09:22:39.503Z,15.77
2023-05-23T09:27:48.552Z,15.50
2023-05-23T09:33:05.547Z,15.27
2023-05-23T09:38:10.670Z,15.17
2023-05-23T09:43:13.532Z,15.66
2023-05-23T09:48:16.278Z,15.78
2023-05-23T09:53:22.596Z,16.12
2023-05-23T09:58:28.042Z,16.43
2023-05-23T10:03:35.592Z,16.60
2023-05-23T14:08:33.936Z,20.82
2023-05-23T14:13:36.539Z,21.20
2023-05-23T14:18:39.113Z,21.55
2023-05-23T14:23:45.774Z,21.62
2023-05-23T14:28:49.133Z,21.47
2023-05-23T14:33:51.730Z,21.27
2023-05-23T14:45:33.031Z,20.22
2023-05-23T14:50:35.952Z,19.84
2023-05-23T14:55:38.882Z,19.62
2023-05-23T15:00:46.893Z,19.53
2023-05-23T15:05:50.167Z,19.44
2023-05-23T15:10:53.121Z,19.17
2023-05-23T15:15:57.123Z,19.08
2023-05-23T15:21:00.030Z,19.13
2023-05-23T15:26:02.642Z,18.30
2023-05-23T15:31:06.619Z,18.78
2023-05-23T15:36:09.607Z,18.59
2023-05-23T15:41:12.337Z,18.58
2023-05-23T15:46:16.395Z,18.44
2023-05-23T15:51:19.167Z,18.42
2023-05-23T15:56:21.937Z,18.30
2023-05-23T16:01:26.002Z,18.33
2023-05-23T16:06:33.064Z,18.29
2023-05-23T16:11:39.952Z,18.19
2023-05-23T16:16:44.987Z,18.21
2023-05-23T16:21:47.772Z,18.01
2023-05-23T16:26:51.012Z,17.89
2023-05-23T16:31:55.009Z,17.90
2023-05-23T16:36:58.356Z,17.84
2023-05-23T16:42:01.942Z,17.78
2023-05-23T16:47:06.263Z,17.98
2023-05-23T16:52:09.276Z,17.78
2023-05-23T16:57:12.264Z,17.71
2023-05-23T17:02:17.065Z,17.58
2023-05-23T17:07:19.836Z,17.62
2023-05-23T17:12:22.503Z,17.43
2023-05-23T17:17:26.534Z,17.37
2023-05-23T17:22:29.188Z,17.35
2023-05-23T17:27:32.146Z,17.23
2023-05-23T17:32:36.083Z,17.28
2023-05-23T17:37:39.002Z,17.08
2023-05-23T17:42:43.199Z,16.85
2023-05-23T17:47:47.225Z,17.03
2023-05-23T17:52:50.425Z,16.76
2023-05-23T17:57:53.878Z,16.89
2023-05-23T18:02:57.925Z,16.86
2023-05-23T18:08:00.613Z,16.71
2023-05-23T18:13:03.249Z,16.66
2023-05-23T18:18:16.019Z,16.51
2023-05-23T18:23:20.715Z,16.37
2023-05-23T18:28:23.334Z,16.15
2023-05-23T18:33:28.044Z,16.15
2023-05-23T18:38:30.814Z,16.01
2023-05-23T18:43:33.451Z,15.93
2023-05-23T18:48:37.445Z,15.81
2023-05-23T18:53:42.425Z,15.75
2023-05-23T18:58:46.959Z,15.65
2023-05-23T19:03:51.325Z,15.62
2023-05-23T19:08:54.001Z,15.57
2023-05-23T19:13:56.622Z,15.55
2023-05-23T19:19:00.638Z,15.37
2023-05-23T19:24:07.215Z,15.30
2023-05-23T19:29:10.603Z,15.18
2023-05-23T19:34:14.555Z,15.11
2023-05-23T19:39:17.188Z,14.99
2023-05-23T19:44:20.181Z,14.76
2023-05-23T19:49:24.121Z,14.71
2023-05-23T19:54:28.033Z,14.55
2023-05-23T19:59:30.709Z,14.53
2023-05-23T20:04:34.886Z,14.46
2023-05-23T20:09:37.876Z,14.38
2023-05-23T20:14:40.903Z,14.35
2023-05-23T20:19:44.836Z,14.27
2023-05-23T20:24:47.608Z,14.20
2023-05-23T20:29:51.138Z,13.76
2023-05-23T20:34:55.101Z,13.80
2023-05-23T20:39:57.944Z,13.79
2023-05-23T20:45:00.551Z,13.70
2023-05-23T20:50:05.066Z,13.72
2023-05-23T20:55:08.796Z,13.71
2023-05-23T21:00:13.075Z,13.57
2023-05-23T21:05:17.296Z,13.46
2023-05-23T21:10:20.204Z,13.44
2023-05-23T21:15:22.880Z,13.36
2023-05-23T21:20:28.824Z,13.24
2023-05-23T21:25:31.819Z,13.20
2023-05-23T21:30:34.497Z,13.11
2023-05-23T21:35:38.556Z,13.07
2023-05-23T21:40:41.246Z,12.96
2023-05-23T21:45:44.128Z,12.97
2023-05-23T21:50:48.566Z,12.87
2023-05-23T21:55:51.351Z,12.73
2023-05-23T22:00:53.931Z,12.60
2023-05-23T22:05:57.868Z,12.50
2023-05-23T22:11:00.969Z,12.38
2023-05-23T22:16:05.130Z,12.41
2023-05-23T22:21:09.108Z,12.39
2023-05-23T22:26:12.335Z,12.39
2023-05-23T22:31:15.416Z,12.31
2023-05-23T22:36:19.402Z,12.29
2023-05-23T22:41:22.154Z,12.08
2023-05-23T22:46:24.816Z,12.09
2023-05-23T22:51:29.236Z,12.12
2023-05-23T22:56:31.837Z,11.92
2023-05-23T23:01:34.713Z,12.01
2023-05-23T23:06:38.786Z,11.90
2023-05-23T23:11:41.375Z,11.82
2023-05-23T23:16:46.162Z,11.79
2023-05-23T23:21:51.141Z,11.84
2023-05-23T23:26:53.719Z,11.83
2023-05-23T23:31:58.760Z,11.63
2023-05-23T23:37:02.676Z,11.63
2023-05-23T23:42:06.062Z,11.70
2023-05-23T23:47:08.912Z,11.64
2023-05-23T23:52:12.876Z,11.49
2023-05-23T23:57:15.564Z,11.48
